MTO Blagnac (VFR) : visi 10km, tempé 18/, QNH1023 (LFMP Q1021, LFBZ Q1021)

Préparer un vol

un pilote averti en vaut deux !

Carte d'approche à vue : aérodrome de Muret (LFBR)

Jour/nuit à Toulouse

Météo France

Cartes, prévisions météo aéronautiques officielles

Windy

Visualisation météo avancée

NOTAM

Recherche route étroite

SUP AIP

Complément à l'information aéronautique

Accueil

Notamment à l'aide des outils ci-dessus, la préparation d'un vol consiste à rassembler les éléments qui permettront de connaître ses conditions en 4 dimensions.
Ces sources alimentent l'élément le plus important d'un vol : la prise de décision, qui mènera au maintien, la modification ou l'annulation d'un vol.

Cette information se trouve sur les cartes de navigation, les cartes de prévision météo, et autres publications aéronautiques.
Concernant spécifiquement l'aérodrome de Muret, l'information disponible au jour le jour consiste en ce qui suit :

  • Messages d'observation et de prévision météo : METAR à Muret, TAF à Blagnac
  • Messages d'information d'aérodrome à Muret : les NOtices TO AirMen (NOTAM)
  • L'éphéméride : nécessaire pour séparer le vol de jour du vol de nuit, les jour et nuit aéronautiques sont situés, respectivement, 30 minutes avant le lever et 30 minutes après le coucher de soleil.

Ces informations, ainsi que la carte d'approche à vue sur l'aérodrome de Muret, sont disponibles ci-contre.

METAR / TAF Muret et Blagnac

LFBR - MURET LHERM

METAR LFBR 201030Z AUTO 05003KT 360V130 CAVOK 18/09 Q1023=

LFBO - TOULOUSE BLAGNAC

METAR LFBO 201030Z AUTO 03003KT 310V110 9999 FEW011 18/07 Q1023 NOSIG=

TAF LFBO 200500Z 2006/2112 VRB03KT CAVOK BECMG 2010/2012 02007KT=


Source : Navigeo

NOTAM Muret


LFFA-D2115/17
Q) LFBB/QFALB/IV/NBO/ A/000/999/4327N00116E005
A) LFBR MURET LHERM
B) 2017 May 05 15:53 C) 2017 Oct 27 06:30
D) MON-FRI SR-0630
EXC SAT SUN MAY 08 25 JUN 5 JUL 14 AUG 15
E) AERODROME RESERVE AUX AERONEFS BASES


LFFA-D3991/17
Q) LFBB/QSTAH/IV/ BO/ A/000/999/4327N00116E005
A) LFBR MURET LHERM
B) 2017 Sep 04 07:00 C) 2017 Sep 23 17:00
E) HORAIRES CONTROLE D'AERODROME (LF-R81) :
LUN-SAM 0700-1700
EXTENSION POSSIBLE LE MARDI JUSQU'A 21H00 SUR PPR LE
JOUR MEME AVANT 14H00. DIMANCHES INDISPONIBLES.


LFFA-D4301/17
Q) LFBB/QLPAS/IV/ BO/ A/000/999/4327N00116E005
A) LFBR MURET LHERM
B) 2017 Sep 08 14:00 C) 2017 Oct 10 14:00
E) PAPI RWY12 U/S


LFFA-D4356/17
Q) LFBB/QMRLC/IV/NBO/ A/000/999/4327N00116E005
A) LFBR MURET LHERM
B) 2017 Sep 21 08:30 C) 2017 Sep 21 10:00
E) PISTES REVETUES ET NON REVETUES AVIONS FERMEES


LFFA-W0865/17
Q) LFBB/QWULW/IV/ BO/AW/000/003/4326N00116E006
A) LFBR MURET LHERM
B) 2017 Apr 24 00:00 C) 2017 Nov 30 23:59
E) ACTIVITE DRONE DANS LF-R81 MURET
RDL 105/3.1NM ARP LFBR
PSN : 432611N 0011959E
ACTIVITE POSSIBLE UNIQUEMENT DURANT HORAIRES ATS MURET
F) SFC
G) 330FT AGL
Source : Navigeo